sensor_id;sensor_type;location;lat;lon;timestamp;P1;durP1;ratioP1;P2;durP2;ratioP2
7605;SDS011;3844;53.360;9.738;2023-04-24T00:01:17;9.68;;;6.97;;
7605;SDS011;3844;53.360;9.738;2023-04-24T00:03:19;11.27;;;7.55;;
7605;SDS011;3844;53.360;9.738;2023-04-24T00:05:21;12.20;;;7.63;;
7605;SDS011;3844;53.360;9.738;2023-04-24T00:07:21;10.45;;;7.60;;
7605;SDS011;3844;53.360;9.738;2023-04-24T00:09:22;10.75;;;7.80;;
7605;SDS011;3844;53.360;9.738;2023-04-24T00:11:24;11.18;;;7.07;;
7605;SDS011;3844;53.360;9.738;2023-04-24T00:13:24;11.10;;;7.85;;
7605;SDS011;3844;53.360;9.738;2023-04-24T00:15:25;10.55;;;7.28;;
7605;SDS011;3844;53.360;9.738;2023-04-24T00:17:26;13.05;;;7.20;;
7605;SDS011;3844;53.360;9.738;2023-04-24T00:19:27;9.90;;;6.97;;
7605;SDS011;3844;53.360;9.738;2023-04-24T00:21:29;9.70;;;6.85;;
7605;SDS011;3844;53.360;9.738;2023-04-24T00:23:30;10.25;;;7.28;;
7605;SDS011;3844;53.360;9.738;2023-04-24T00:25:30;11.68;;;7.60;;
7605;SDS011;3844;53.360;9.738;2023-04-24T00:27:31;11.00;;;7.63;;
7605;SDS011;3844;53.360;9.738;2023-04-24T00:29:32;11.98;;;7.68;;
7605;SDS011;3844;53.360;9.738;2023-04-24T00:31:33;11.55;;;7.78;;
7605;SDS011;3844;53.360;9.738;2023-04-24T00:33:36;10.15;;;7.03;;
7605;SDS011;3844;53.360;9.738;2023-04-24T00:35:37;12.65;;;8.25;;
7605;SDS011;3844;53.360;9.738;2023-04-24T00:37:38;10.77;;;7.32;;
7605;SDS011;3844;53.360;9.738;2023-04-24T00:39:39;10.98;;;7.47;;
7605;SDS011;3844;53.360;9.738;2023-04-24T00:41:40;11.05;;;7.03;;
7605;SDS011;3844;53.360;9.738;2023-04-24T00:43:40;12.40;;;7.78;;
7605;SDS011;3844;53.360;9.738;2023-04-24T00:45:42;12.02;;;7.65;;
7605;SDS011;3844;53.360;9.738;2023-04-24T00:47:43;12.10;;;8.02;;
7605;SDS011;3844;53.360;9.738;2023-04-24T00:49:45;11.05;;;7.82;;
7605;SDS011;3844;53.360;9.738;2023-04-24T00:51:46;11.70;;;8.30;;
7605;SDS011;3844;53.360;9.738;2023-04-24T00:53:47;10.70;;;7.70;;
7605;SDS011;3844;53.360;9.738;2023-04-24T00:55:48;11.45;;;7.93;;
7605;SDS011;3844;53.360;9.738;2023-04-24T00:57:49;12.05;;;7.63;;
7605;SDS011;3844;53.360;9.738;2023-04-24T00:59:51;11.35;;;7.38;;
7605;SDS011;3844;53.360;9.738;2023-04-24T01:01:53;11.13;;;7.30;;
7605;SDS011;3844;53.360;9.738;2023-04-24T01:03:54;13.55;;;7.80;;
7605;SDS011;3844;53.360;9.738;2023-04-24T01:05:56;11.45;;;7.80;;
7605;SDS011;3844;53.360;9.738;2023-04-24T01:07:57;11.57;;;7.85;;
7605;SDS011;3844;53.360;9.738;2023-04-24T01:09:59;11.38;;;7.45;;
7605;SDS011;3844;53.360;9.738;2023-04-24T01:12:00;10.13;;;7.10;;
7605;SDS011;3844;53.360;9.738;2023-04-24T01:14:01;11.50;;;7.28;;
7605;SDS011;3844;53.360;9.738;2023-04-24T01:16:02;11.23;;;7.35;;
7605;SDS011;3844;53.360;9.738;2023-04-24T01:18:03;12.50;;;7.38;;
7605;SDS011;3844;53.360;9.738;2023-04-24T01:20:04;10.77;;;7.03;;
7605;SDS011;3844;53.360;9.738;2023-04-24T01:22:10;9.57;;;6.72;;
7605;SDS011;3844;53.360;9.738;2023-04-24T01:24:12;10.25;;;6.95;;
7605;SDS011;3844;53.360;9.738;2023-04-24T01:26:14;9.32;;;6.38;;
7605;SDS011;3844;53.360;9.738;2023-04-24T01:28:16;8.95;;;6.13;;
7605;SDS011;3844;53.360;9.738;2023-04-24T01:30:17;10.52;;;6.47;;
7605;SDS011;3844;53.360;9.738;2023-04-24T01:32:18;8.40;;;5.35;;
7605;SDS011;3844;53.360;9.738;2023-04-24T01:34:19;8.75;;;5.78;;
7605;SDS011;3844;53.360;9.738;2023-04-24T01:36:20;8.18;;;5.32;;
7605;SDS011;3844;53.360;9.738;2023-04-24T01:38:22;8.20;;;5.20;;
7605;SDS011;3844;53.360;9.738;2023-04-24T01:40:23;7.65;;;5.15;;
7605;SDS011;3844;53.360;9.738;2023-04-24T01:42:23;7.45;;;4.68;;
7605;SDS011;3844;53.360;9.738;2023-04-24T01:44:24;9.07;;;5.22;;
7605;SDS011;3844;53.360;9.738;2023-04-24T01:46:27;6.95;;;4.70;;
7605;SDS011;3844;53.360;9.738;2023-04-24T01:48:28;6.95;;;4.63;;
7605;SDS011;3844;53.360;9.738;2023-04-24T01:50:30;7.30;;;4.50;;
7605;SDS011;3844;53.360;9.738;2023-04-24T01:52:31;8.35;;;4.60;;
7605;SDS011;3844;53.360;9.738;2023-04-24T01:54:33;6.80;;;4.50;;
7605;SDS011;3844;53.360;9.738;2023-04-24T01:56:34;6.47;;;4.03;;
7605;SDS011;3844;53.360;9.738;2023-04-24T01:58:36;5.78;;;3.70;;
7605;SDS011;3844;53.360;9.738;2023-04-24T02:00:37;6.13;;;3.80;;
7605;SDS011;3844;53.360;9.738;2023-04-24T02:02:41;6.70;;;3.50;;
7605;SDS011;3844;53.360;9.738;2023-04-24T02:04:42;5.25;;;3.20;;
7605;SDS011;3844;53.360;9.738;2023-04-24T02:06:43;5.40;;;3.60;;
7605;SDS011;3844;53.360;9.738;2023-04-24T02:08:44;9.35;;;4.82;;
7605;SDS011;3844;53.360;9.738;2023-04-24T02:10:45;6.30;;;3.95;;
7605;SDS011;3844;53.360;9.738;2023-04-24T02:12:46;6.38;;;4.30;;
7605;SDS011;3844;53.360;9.738;2023-04-24T02:14:47;7.55;;;4.38;;
7605;SDS011;3844;53.360;9.738;2023-04-24T02:16:48;7.70;;;4.47;;
7605;SDS011;3844;53.360;9.738;2023-04-24T02:18:48;7.30;;;4.20;;
7605;SDS011;3844;53.360;9.738;2023-04-24T02:20:49;8.73;;;4.10;;
7605;SDS011;3844;53.360;9.738;2023-04-24T02:22:50;6.80;;;4.22;;
7605;SDS011;3844;53.360;9.738;2023-04-24T02:24:51;6.45;;;3.70;;
7605;SDS011;3844;53.360;9.738;2023-04-24T02:26:52;5.53;;;3.90;;
7605;SDS011;3844;53.360;9.738;2023-04-24T02:28:53;8.00;;;4.00;;
7605;SDS011;3844;53.360;9.738;2023-04-24T02:30:54;6.38;;;3.67;;
7605;SDS011;3844;53.360;9.738;2023-04-24T02:32:55;6.63;;;3.63;;
7605;SDS011;3844;53.360;9.738;2023-04-24T02:34:56;5.32;;;3.58;;
7605;SDS011;3844;53.360;9.738;2023-04-24T02:36:57;6.78;;;3.88;;
7605;SDS011;3844;53.360;9.738;2023-04-24T02:38:57;7.15;;;4.07;;
7605;SDS011;3844;53.360;9.738;2023-04-24T02:40:58;7.82;;;4.05;;
7605;SDS011;3844;53.360;9.738;2023-04-24T02:43:00;6.25;;;3.63;;
7605;SDS011;3844;53.360;9.738;2023-04-24T02:45:01;6.18;;;3.67;;
7605;SDS011;3844;53.360;9.738;2023-04-24T02:47:02;4.68;;;3.03;;
7605;SDS011;3844;53.360;9.738;2023-04-24T02:49:03;5.60;;;3.13;;
7605;SDS011;3844;53.360;9.738;2023-04-24T02:51:04;5.70;;;3.42;;
7605;SDS011;3844;53.360;9.738;2023-04-24T02:53:06;5.90;;;3.30;;
7605;SDS011;3844;53.360;9.738;2023-04-24T02:55:07;5.15;;;3.00;;
7605;SDS011;3844;53.360;9.738;2023-04-24T02:57:08;5.35;;;3.03;;
7605;SDS011;3844;53.360;9.738;2023-04-24T02:59:08;5.65;;;3.03;;
7605;SDS011;3844;53.360;9.738;2023-04-24T03:01:10;4.82;;;2.70;;
7605;SDS011;3844;53.360;9.738;2023-04-24T03:03:11;5.93;;;2.78;;
7605;SDS011;3844;53.360;9.738;2023-04-24T03:05:12;5.53;;;3.13;;
7605;SDS011;3844;53.360;9.738;2023-04-24T03:07:13;6.97;;;3.30;;
7605;SDS011;3844;53.360;9.738;2023-04-24T03:09:14;5.78;;;3.15;;
7605;SDS011;3844;53.360;9.738;2023-04-24T03:11:15;5.05;;;3.20;;
7605;SDS011;3844;53.360;9.738;2023-04-24T03:13:16;6.40;;;2.92;;
7605;SDS011;3844;53.360;9.738;2023-04-24T03:15:16;5.53;;;2.92;;
7605;SDS011;3844;53.360;9.738;2023-04-24T03:17:17;4.43;;;2.45;;
7605;SDS011;3844;53.360;9.738;2023-04-24T03:19:18;6.20;;;2.70;;
7605;SDS011;3844;53.360;9.738;2023-04-24T03:21:19;5.82;;;2.67;;
7605;SDS011;3844;53.360;9.738;2023-04-24T03:23:20;5.20;;;2.78;;
7605;SDS011;3844;53.360;9.738;2023-04-24T03:25:21;5.10;;;3.00;;
7605;SDS011;3844;53.360;9.738;2023-04-24T03:27:22;5.18;;;2.67;;
7605;SDS011;3844;53.360;9.738;2023-04-24T03:29:23;5.30;;;3.08;;
7605;SDS011;3844;53.360;9.738;2023-04-24T03:31:24;5.80;;;3.13;;
7605;SDS011;3844;53.360;9.738;2023-04-24T03:33:25;5.40;;;3.00;;
7605;SDS011;3844;53.360;9.738;2023-04-24T03:35:26;4.88;;;2.90;;
7605;SDS011;3844;53.360;9.738;2023-04-24T03:37:27;7.25;;;3.67;;
7605;SDS011;3844;53.360;9.738;2023-04-24T03:39:28;5.32;;;3.40;;
7605;SDS011;3844;53.360;9.738;2023-04-24T03:41:28;5.63;;;3.30;;
7605;SDS011;3844;53.360;9.738;2023-04-24T03:43:30;5.32;;;3.22;;
7605;SDS011;3844;53.360;9.738;2023-04-24T03:45:33;6.18;;;3.25;;
7605;SDS011;3844;53.360;9.738;2023-04-24T03:47:34;4.78;;;3.17;;
7605;SDS011;3844;53.360;9.738;2023-04-24T03:49:35;5.60;;;3.05;;
7605;SDS011;3844;53.360;9.738;2023-04-24T03:51:36;4.68;;;3.10;;
7605;SDS011;3844;53.360;9.738;2023-04-24T03:53:36;6.25;;;3.17;;
7605;SDS011;3844;53.360;9.738;2023-04-24T03:55:37;4.15;;;2.70;;
7605;SDS011;3844;53.360;9.738;2023-04-24T03:57:39;4.60;;;2.50;;
7605;SDS011;3844;53.360;9.738;2023-04-24T03:59:40;4.78;;;2.67;;
7605;SDS011;3844;53.360;9.738;2023-04-24T04:01:41;6.80;;;3.00;;
7605;SDS011;3844;53.360;9.738;2023-04-24T04:03:42;5.70;;;3.13;;
7605;SDS011;3844;53.360;9.738;2023-04-24T04:05:43;5.18;;;3.05;;
7605;SDS011;3844;53.360;9.738;2023-04-24T04:07:44;4.85;;;2.92;;
7605;SDS011;3844;53.360;9.738;2023-04-24T04:09:45;4.95;;;2.88;;
7605;SDS011;3844;53.360;9.738;2023-04-24T04:11:46;5.95;;;3.28;;
7605;SDS011;3844;53.360;9.738;2023-04-24T04:13:46;5.43;;;2.85;;
7605;SDS011;3844;53.360;9.738;2023-04-24T04:15:48;5.38;;;2.72;;
7605;SDS011;3844;53.360;9.738;2023-04-24T04:17:48;5.10;;;3.03;;
7605;SDS011;3844;53.360;9.738;2023-04-24T04:19:49;4.82;;;2.50;;
7605;SDS011;3844;53.360;9.738;2023-04-24T04:21:50;4.68;;;2.40;;
7605;SDS011;3844;53.360;9.738;2023-04-24T04:23:53;4.78;;;2.53;;
7605;SDS011;3844;53.360;9.738;2023-04-24T04:25:54;4.28;;;2.60;;
7605;SDS011;3844;53.360;9.738;2023-04-24T04:27:55;4.60;;;2.60;;
7605;SDS011;3844;53.360;9.738;2023-04-24T04:30:01;4.63;;;2.45;;
7605;SDS011;3844;53.360;9.738;2023-04-24T04:32:04;5.55;;;2.72;;
7605;SDS011;3844;53.360;9.738;2023-04-24T04:34:06;5.55;;;2.50;;
7605;SDS011;3844;53.360;9.738;2023-04-24T04:36:07;3.72;;;2.40;;
7605;SDS011;3844;53.360;9.738;2023-04-24T04:38:08;4.10;;;2.28;;
7605;SDS011;3844;53.360;9.738;2023-04-24T04:40:10;5.35;;;2.40;;
7605;SDS011;3844;53.360;9.738;2023-04-24T04:42:14;5.35;;;2.30;;
7605;SDS011;3844;53.360;9.738;2023-04-24T04:46:16;5.65;;;2.75;;
7605;SDS011;3844;53.360;9.738;2023-04-24T04:48:17;4.75;;;2.72;;
7605;SDS011;3844;53.360;9.738;2023-04-24T04:50:18;4.43;;;2.42;;
7605;SDS011;3844;53.360;9.738;2023-04-24T04:52:19;4.82;;;2.47;;
7605;SDS011;3844;53.360;9.738;2023-04-24T04:54:20;3.97;;;2.38;;
7605;SDS011;3844;53.360;9.738;2023-04-24T04:56:21;4.40;;;2.38;;
7605;SDS011;3844;53.360;9.738;2023-04-24T04:58:22;5.00;;;2.30;;
7605;SDS011;3844;53.360;9.738;2023-04-24T05:00:23;4.10;;;2.20;;
7605;SDS011;3844;53.360;9.738;2023-04-24T05:02:25;4.15;;;1.98;;
7605;SDS011;3844;53.360;9.738;2023-04-24T05:04:26;3.80;;;2.00;;
7605;SDS011;3844;53.360;9.738;2023-04-24T05:06:26;3.72;;;1.98;;
7605;SDS011;3844;53.360;9.738;2023-04-24T05:08:27;4.88;;;1.88;;
7605;SDS011;3844;53.360;9.738;2023-04-24T05:10:28;3.47;;;1.90;;
7605;SDS011;3844;53.360;9.738;2023-04-24T05:12:30;3.42;;;1.67;;
7605;SDS011;3844;53.360;9.738;2023-04-24T05:14:31;4.00;;;1.70;;
7605;SDS011;3844;53.360;9.738;2023-04-24T05:16:32;3.08;;;1.40;;
7605;SDS011;3844;53.360;9.738;2023-04-24T05:18:33;3.78;;;1.50;;
7605;SDS011;3844;53.360;9.738;2023-04-24T05:20:33;3.88;;;1.45;;
7605;SDS011;3844;53.360;9.738;2023-04-24T05:22:34;3.00;;;1.30;;
7605;SDS011;3844;53.360;9.738;2023-04-24T05:24:36;4.13;;;1.60;;
7605;SDS011;3844;53.360;9.738;2023-04-24T05:26:37;2.78;;;1.23;;
7605;SDS011;3844;53.360;9.738;2023-04-24T05:28:37;3.55;;;1.20;;
7605;SDS011;3844;53.360;9.738;2023-04-24T05:30:39;5.00;;;1.13;;
7605;SDS011;3844;53.360;9.738;2023-04-24T05:32:39;3.30;;;1.23;;
7605;SDS011;3844;53.360;9.738;2023-04-24T05:34:40;2.65;;;1.13;;
7605;SDS011;3844;53.360;9.738;2023-04-24T05:36:41;4.82;;;1.30;;
7605;SDS011;3844;53.360;9.738;2023-04-24T05:38:42;3.20;;;1.30;;
7605;SDS011;3844;53.360;9.738;2023-04-24T05:40:43;2.13;;;1.00;;
7605;SDS011;3844;53.360;9.738;2023-04-24T05:42:44;3.10;;;1.13;;
7605;SDS011;3844;53.360;9.738;2023-04-24T05:44:44;3.83;;;1.10;;
7605;SDS011;3844;53.360;9.738;2023-04-24T05:46:46;3.10;;;1.23;;
7605;SDS011;3844;53.360;9.738;2023-04-24T05:48:46;3.13;;;1.30;;
7605;SDS011;3844;53.360;9.738;2023-04-24T05:50:47;3.35;;;1.33;;
7605;SDS011;3844;53.360;9.738;2023-04-24T05:52:48;3.28;;;1.30;;
7605;SDS011;3844;53.360;9.738;2023-04-24T05:54:49;3.10;;;1.25;;
7605;SDS011;3844;53.360;9.738;2023-04-24T05:56:50;2.78;;;1.38;;
7605;SDS011;3844;53.360;9.738;2023-04-24T05:58:51;4.72;;;1.38;;
7605;SDS011;3844;53.360;9.738;2023-04-24T06:00:52;3.25;;;1.30;;
7605;SDS011;3844;53.360;9.738;2023-04-24T06:02:53;3.05;;;1.40;;
7605;SDS011;3844;53.360;9.738;2023-04-24T06:04:54;3.08;;;1.42;;
7605;SDS011;3844;53.360;9.738;2023-04-24T06:06:59;3.17;;;1.40;;
7605;SDS011;3844;53.360;9.738;2023-04-24T06:08:59;3.38;;;1.50;;
7605;SDS011;3844;53.360;9.738;2023-04-24T06:11:01;3.00;;;1.45;;
7605;SDS011;3844;53.360;9.738;2023-04-24T06:13:01;3.47;;;1.45;;
7605;SDS011;3844;53.360;9.738;2023-04-24T06:15:02;2.92;;;1.58;;
7605;SDS011;3844;53.360;9.738;2023-04-24T06:17:04;3.50;;;1.50;;
7605;SDS011;3844;53.360;9.738;2023-04-24T06:19:05;3.15;;;1.50;;
7605;SDS011;3844;53.360;9.738;2023-04-24T06:21:08;4.07;;;1.88;;
7605;SDS011;3844;53.360;9.738;2023-04-24T06:23:09;4.90;;;2.05;;
7605;SDS011;3844;53.360;9.738;2023-04-24T06:25:10;4.88;;;2.10;;
7605;SDS011;3844;53.360;9.738;2023-04-24T06:27:11;5.75;;;3.60;;
7605;SDS011;3844;53.360;9.738;2023-04-24T06:29:15;5.15;;;2.38;;
7605;SDS011;3844;53.360;9.738;2023-04-24T06:31:16;4.95;;;2.00;;
7605;SDS011;3844;53.360;9.738;2023-04-24T06:33:16;4.53;;;1.73;;
7605;SDS011;3844;53.360;9.738;2023-04-24T06:35:17;4.38;;;1.63;;
7605;SDS011;3844;53.360;9.738;2023-04-24T06:37:19;3.50;;;1.85;;
7605;SDS011;3844;53.360;9.738;2023-04-24T06:39:20;3.65;;;1.75;;
7605;SDS011;3844;53.360;9.738;2023-04-24T06:41:21;4.72;;;2.10;;
7605;SDS011;3844;53.360;9.738;2023-04-24T06:43:22;3.90;;;1.95;;
7605;SDS011;3844;53.360;9.738;2023-04-24T06:45:25;4.40;;;2.20;;
7605;SDS011;3844;53.360;9.738;2023-04-24T06:47:26;4.18;;;2.30;;
7605;SDS011;3844;53.360;9.738;2023-04-24T06:49:27;4.45;;;2.00;;
7605;SDS011;3844;53.360;9.738;2023-04-24T06:51:28;4.57;;;2.38;;
7605;SDS011;3844;53.360;9.738;2023-04-24T06:53:29;5.22;;;2.17;;
7605;SDS011;3844;53.360;9.738;2023-04-24T06:55:30;4.72;;;1.90;;
7605;SDS011;3844;53.360;9.738;2023-04-24T06:57:31;3.75;;;1.90;;
7605;SDS011;3844;53.360;9.738;2023-04-24T06:59:32;3.65;;;1.83;;
7605;SDS011;3844;53.360;9.738;2023-04-24T07:01:33;4.15;;;2.38;;
7605;SDS011;3844;53.360;9.738;2023-04-24T07:03:33;3.80;;;2.38;;
7605;SDS011;3844;53.360;9.738;2023-04-24T07:05:35;4.93;;;2.40;;
7605;SDS011;3844;53.360;9.738;2023-04-24T07:07:37;3.55;;;2.10;;
7605;SDS011;3844;53.360;9.738;2023-04-24T07:09:37;4.47;;;2.88;;
7605;SDS011;3844;53.360;9.738;2023-04-24T07:11:40;5.20;;;2.85;;
7605;SDS011;3844;53.360;9.738;2023-04-24T07:13:42;4.80;;;2.88;;
7605;SDS011;3844;53.360;9.738;2023-04-24T07:15:44;4.40;;;2.80;;
7605;SDS011;3844;53.360;9.738;2023-04-24T07:17:44;5.53;;;3.00;;
7605;SDS011;3844;53.360;9.738;2023-04-24T07:19:46;6.32;;;3.05;;
7605;SDS011;3844;53.360;9.738;2023-04-24T07:21:46;6.45;;;3.72;;
7605;SDS011;3844;53.360;9.738;2023-04-24T07:23:47;6.07;;;4.18;;
7605;SDS011;3844;53.360;9.738;2023-04-24T07:25:48;6.15;;;4.00;;
7605;SDS011;3844;53.360;9.738;2023-04-24T07:27:49;5.68;;;4.00;;
7605;SDS011;3844;53.360;9.738;2023-04-24T07:29:50;7.95;;;4.50;;
7605;SDS011;3844;53.360;9.738;2023-04-24T07:31:51;6.32;;;4.50;;
7605;SDS011;3844;53.360;9.738;2023-04-24T07:33:52;6.60;;;4.38;;
7605;SDS011;3844;53.360;9.738;2023-04-24T07:35:52;7.85;;;4.97;;
7605;SDS011;3844;53.360;9.738;2023-04-24T07:37:53;7.32;;;4.88;;
7605;SDS011;3844;53.360;9.738;2023-04-24T07:39:54;6.68;;;4.72;;
7605;SDS011;3844;53.360;9.738;2023-04-24T07:41:55;7.18;;;4.47;;
7605;SDS011;3844;53.360;9.738;2023-04-24T07:43:56;7.25;;;4.53;;
7605;SDS011;3844;53.360;9.738;2023-04-24T07:45:58;7.63;;;4.50;;
7605;SDS011;3844;53.360;9.738;2023-04-24T07:47:59;6.60;;;4.85;;
7605;SDS011;3844;53.360;9.738;2023-04-24T07:50:00;7.47;;;5.00;;
7605;SDS011;3844;53.360;9.738;2023-04-24T07:52:01;6.78;;;4.53;;
7605;SDS011;3844;53.360;9.738;2023-04-24T07:54:02;7.45;;;4.80;;
7605;SDS011;3844;53.360;9.738;2023-04-24T07:56:03;7.45;;;5.15;;
7605;SDS011;3844;53.360;9.738;2023-04-24T07:58:05;7.90;;;4.78;;
7605;SDS011;3844;53.360;9.738;2023-04-24T08:00:05;9.40;;;5.40;;
7605;SDS011;3844;53.360;9.738;2023-04-24T08:02:07;8.77;;;5.70;;
7605;SDS011;3844;53.360;9.738;2023-04-24T08:04:07;7.93;;;5.60;;
7605;SDS011;3844;53.360;9.738;2023-04-24T08:06:08;8.23;;;5.50;;
7605;SDS011;3844;53.360;9.738;2023-04-24T08:08:09;7.07;;;4.57;;
7605;SDS011;3844;53.360;9.738;2023-04-24T08:10:10;8.68;;;5.28;;
7605;SDS011;3844;53.360;9.738;2023-04-24T08:12:11;8.00;;;5.47;;
7605;SDS011;3844;53.360;9.738;2023-04-24T08:14:12;8.07;;;5.80;;
7605;SDS011;3844;53.360;9.738;2023-04-24T08:16:14;7.88;;;5.20;;
7605;SDS011;3844;53.360;9.738;2023-04-24T08:18:15;9.25;;;5.50;;
7605;SDS011;3844;53.360;9.738;2023-04-24T08:20:16;8.60;;;5.65;;
7605;SDS011;3844;53.360;9.738;2023-04-24T08:22:17;8.35;;;5.50;;
7605;SDS011;3844;53.360;9.738;2023-04-24T08:24:18;9.85;;;6.03;;
7605;SDS011;3844;53.360;9.738;2023-04-24T08:26:19;7.25;;;5.25;;
7605;SDS011;3844;53.360;9.738;2023-04-24T08:28:20;8.35;;;5.80;;
7605;SDS011;3844;53.360;9.738;2023-04-24T08:30:21;8.32;;;5.32;;
7605;SDS011;3844;53.360;9.738;2023-04-24T08:32:22;8.70;;;5.72;;
7605;SDS011;3844;53.360;9.738;2023-04-24T08:34:22;8.02;;;5.40;;
7605;SDS011;3844;53.360;9.738;2023-04-24T08:36:23;9.65;;;6.10;;
7605;SDS011;3844;53.360;9.738;2023-04-24T08:38:24;8.02;;;5.00;;
7605;SDS011;3844;53.360;9.738;2023-04-24T08:40:28;8.02;;;5.07;;
7605;SDS011;3844;53.360;9.738;2023-04-24T08:42:30;7.05;;;4.78;;
7605;SDS011;3844;53.360;9.738;2023-04-24T08:44:33;6.30;;;4.18;;
7605;SDS011;3844;53.360;9.738;2023-04-24T08:46:35;7.15;;;4.90;;
7605;SDS011;3844;53.360;9.738;2023-04-24T08:48:37;8.07;;;4.88;;
7605;SDS011;3844;53.360;9.738;2023-04-24T08:50:38;7.47;;;5.07;;
7605;SDS011;3844;53.360;9.738;2023-04-24T08:52:42;7.65;;;5.22;;
7605;SDS011;3844;53.360;9.738;2023-04-24T08:54:43;8.25;;;5.40;;
7605;SDS011;3844;53.360;9.738;2023-04-24T08:56:45;7.88;;;5.10;;
7605;SDS011;3844;53.360;9.738;2023-04-24T08:58:50;10.00;;;5.28;;
7605;SDS011;3844;53.360;9.738;2023-04-24T09:00:51;10.50;;;5.65;;
7605;SDS011;3844;53.360;9.738;2023-04-24T09:02:54;8.65;;;5.60;;
7605;SDS011;3844;53.360;9.738;2023-04-24T09:04:56;11.02;;;5.25;;
7605;SDS011;3844;53.360;9.738;2023-04-24T09:06:57;7.35;;;4.72;;
7605;SDS011;3844;53.360;9.738;2023-04-24T09:09:00;7.28;;;5.32;;
7605;SDS011;3844;53.360;9.738;2023-04-24T09:11:01;7.57;;;5.05;;
7605;SDS011;3844;53.360;9.738;2023-04-24T09:13:03;9.98;;;5.80;;
7605;SDS011;3844;53.360;9.738;2023-04-24T09:15:04;8.70;;;6.40;;
7605;SDS011;3844;53.360;9.738;2023-04-24T09:17:07;13.88;;;9.18;;
7605;SDS011;3844;53.360;9.738;2023-04-24T09:19:08;13.90;;;9.93;;
7605;SDS011;3844;53.360;9.738;2023-04-24T09:21:09;9.45;;;7.10;;
7605;SDS011;3844;53.360;9.738;2023-04-24T09:23:10;10.30;;;7.35;;
7605;SDS011;3844;53.360;9.738;2023-04-24T09:25:16;8.65;;;6.50;;
7605;SDS011;3844;53.360;9.738;2023-04-24T09:27:16;15.38;;;12.23;;
7605;SDS011;3844;53.360;9.738;2023-04-24T09:29:18;11.70;;;8.20;;
7605;SDS011;3844;53.360;9.738;2023-04-24T09:31:19;10.18;;;7.35;;
7605;SDS011;3844;53.360;9.738;2023-04-24T09:33:22;14.38;;;9.88;;
7605;SDS011;3844;53.360;9.738;2023-04-24T09:35:22;14.50;;;9.25;;
7605;SDS011;3844;53.360;9.738;2023-04-24T09:37:27;14.07;;;9.15;;
7605;SDS011;3844;53.360;9.738;2023-04-24T09:39:29;14.57;;;8.30;;
7605;SDS011;3844;53.360;9.738;2023-04-24T09:41:29;15.32;;;9.35;;
7605;SDS011;3844;53.360;9.738;2023-04-24T09:43:31;15.35;;;9.40;;
7605;SDS011;3844;53.360;9.738;2023-04-24T09:45:36;13.13;;;9.10;;
7605;SDS011;3844;53.360;9.738;2023-04-24T09:47:39;13.85;;;8.63;;
7605;SDS011;3844;53.360;9.738;2023-04-24T09:49:40;14.27;;;9.00;;
7605;SDS011;3844;53.360;9.738;2023-04-24T09:51:43;13.38;;;8.98;;
7605;SDS011;3844;53.360;9.738;2023-04-24T09:53:47;13.05;;;9.38;;
7605;SDS011;3844;53.360;9.738;2023-04-24T09:55:47;14.40;;;9.60;;
7605;SDS011;3844;53.360;9.738;2023-04-24T09:57:57;15.00;;;9.80;;
7605;SDS011;3844;53.360;9.738;2023-04-24T10:00:00;16.17;;;9.00;;
7605;SDS011;3844;53.360;9.738;2023-04-24T10:02:00;15.30;;;9.35;;
7605;SDS011;3844;53.360;9.738;2023-04-24T10:04:01;12.40;;;8.52;;
7605;SDS011;3844;53.360;9.738;2023-04-24T10:06:03;17.65;;;9.43;;
7605;SDS011;3844;53.360;9.738;2023-04-24T10:08:10;16.85;;;9.20;;
7605;SDS011;3844;53.360;9.738;2023-04-24T10:10:11;13.77;;;9.27;;
7605;SDS011;3844;53.360;9.738;2023-04-24T10:12:12;15.35;;;9.05;;
7605;SDS011;3844;53.360;9.738;2023-04-24T10:14:15;15.88;;;9.38;;
7605;SDS011;3844;53.360;9.738;2023-04-24T10:16:18;11.63;;;7.28;;
7605;SDS011;3844;53.360;9.738;2023-04-24T10:18:21;14.90;;;9.02;;
7605;SDS011;3844;53.360;9.738;2023-04-24T10:20:23;14.27;;;10.27;;
7605;SDS011;3844;53.360;9.738;2023-04-24T10:22:29;15.23;;;9.93;;
7605;SDS011;3844;53.360;9.738;2023-04-24T10:24:30;13.82;;;8.55;;
7605;SDS011;3844;53.360;9.738;2023-04-24T10:26:32;16.20;;;9.43;;
7605;SDS011;3844;53.360;9.738;2023-04-24T10:28:33;14.82;;;9.32;;
7605;SDS011;3844;53.360;9.738;2023-04-24T10:30:34;13.32;;;9.43;;
7605;SDS011;3844;53.360;9.738;2023-04-24T10:32:35;14.18;;;8.85;;
7605;SDS011;3844;53.360;9.738;2023-04-24T10:34:36;10.45;;;7.47;;
7605;SDS011;3844;53.360;9.738;2023-04-24T10:36:38;12.23;;;7.75;;
7605;SDS011;3844;53.360;9.738;2023-04-24T10:38:41;14.60;;;8.38;;
7605;SDS011;3844;53.360;9.738;2023-04-24T10:40:45;12.45;;;8.45;;
7605;SDS011;3844;53.360;9.738;2023-04-24T10:42:47;14.35;;;8.75;;
7605;SDS011;3844;53.360;9.738;2023-04-24T10:44:51;13.35;;;8.23;;
7605;SDS011;3844;53.360;9.738;2023-04-24T10:46:53;13.80;;;8.38;;
7605;SDS011;3844;53.360;9.738;2023-04-24T10:48:55;12.73;;;8.38;;
7605;SDS011;3844;53.360;9.738;2023-04-24T10:50:58;13.50;;;8.35;;
7605;SDS011;3844;53.360;9.738;2023-04-24T10:53:05;13.55;;;8.32;;
7605;SDS011;3844;53.360;9.738;2023-04-24T10:55:07;12.15;;;8.00;;
7605;SDS011;3844;53.360;9.738;2023-04-24T10:59:25;12.95;;;7.57;;
7605;SDS011;3844;53.360;9.738;2023-04-24T11:01:30;12.15;;;7.75;;
7605;SDS011;3844;53.360;9.738;2023-04-24T11:03:34;11.38;;;7.57;;
7605;SDS011;3844;53.360;9.738;2023-04-24T11:05:49;11.88;;;7.45;;
7605;SDS011;3844;53.360;9.738;2023-04-24T11:10:24;10.40;;;6.78;;
7605;SDS011;3844;53.360;9.738;2023-04-24T11:12:26;10.05;;;6.38;;
7605;SDS011;3844;53.360;9.738;2023-04-24T11:14:27;9.93;;;5.97;;
7605;SDS011;3844;53.360;9.738;2023-04-24T11:18:39;9.65;;;5.90;;
7605;SDS011;3844;53.360;9.738;2023-04-24T11:20:43;9.25;;;5.88;;
7605;SDS011;3844;53.360;9.738;2023-04-24T11:22:45;8.95;;;5.93;;
7605;SDS011;3844;53.360;9.738;2023-04-24T11:26:46;9.15;;;5.50;;
7605;SDS011;3844;53.360;9.738;2023-04-24T11:28:47;8.98;;;6.00;;
7605;SDS011;3844;53.360;9.738;2023-04-24T11:30:49;11.88;;;5.80;;
7605;SDS011;3844;53.360;9.738;2023-04-24T11:32:51;10.73;;;6.45;;
7605;SDS011;3844;53.360;9.738;2023-04-24T11:34:52;9.43;;;5.97;;
7605;SDS011;3844;53.360;9.738;2023-04-24T11:36:58;9.95;;;5.80;;
7605;SDS011;3844;53.360;9.738;2023-04-24T11:38:59;8.98;;;5.93;;
7605;SDS011;3844;53.360;9.738;2023-04-24T11:41:01;10.07;;;6.32;;
7605;SDS011;3844;53.360;9.738;2023-04-24T11:43:03;10.10;;;6.00;;
7605;SDS011;3844;53.360;9.738;2023-04-24T11:45:08;10.15;;;6.50;;
7605;SDS011;3844;53.360;9.738;2023-04-24T11:47:11;10.88;;;6.72;;
7605;SDS011;3844;53.360;9.738;2023-04-24T11:49:11;10.75;;;6.30;;
7605;SDS011;3844;53.360;9.738;2023-04-24T11:51:15;11.10;;;6.20;;
7605;SDS011;3844;53.360;9.738;2023-04-24T11:57:19;10.48;;;6.45;;
7605;SDS011;3844;53.360;9.738;2023-04-24T11:59:21;10.30;;;6.63;;
7605;SDS011;3844;53.360;9.738;2023-04-24T12:01:22;9.57;;;6.40;;
7605;SDS011;3844;53.360;9.738;2023-04-24T12:03:23;10.80;;;6.78;;
7605;SDS011;3844;53.360;9.738;2023-04-24T12:05:26;10.82;;;6.75;;
7605;SDS011;3844;53.360;9.738;2023-04-24T12:07:27;10.60;;;6.68;;
7605;SDS011;3844;53.360;9.738;2023-04-24T12:09:29;9.27;;;6.47;;
7605;SDS011;3844;53.360;9.738;2023-04-24T12:11:52;12.32;;;6.88;;
7605;SDS011;3844;53.360;9.738;2023-04-24T12:13:54;8.75;;;6.47;;
7605;SDS011;3844;53.360;9.738;2023-04-24T12:15:56;12.10;;;6.90;;
7605;SDS011;3844;53.360;9.738;2023-04-24T12:17:57;9.70;;;6.80;;
7605;SDS011;3844;53.360;9.738;2023-04-24T12:22:01;9.30;;;6.00;;
7605;SDS011;3844;53.360;9.738;2023-04-24T12:24:05;9.57;;;6.00;;
7605;SDS011;3844;53.360;9.738;2023-04-24T12:26:06;11.65;;;6.50;;
7605;SDS011;3844;53.360;9.738;2023-04-24T12:28:11;10.85;;;6.10;;
7605;SDS011;3844;53.360;9.738;2023-04-24T12:30:13;17.60;;;9.50;;
7605;SDS011;3844;53.360;9.738;2023-04-24T12:32:16;17.90;;;10.30;;
7605;SDS011;3844;53.360;9.738;2023-04-24T12:34:19;10.02;;;6.30;;
7605;SDS011;3844;53.360;9.738;2023-04-24T12:36:21;8.30;;;5.55;;
7605;SDS011;3844;53.360;9.738;2023-04-24T12:38:22;8.63;;;5.25;;
7605;SDS011;3844;53.360;9.738;2023-04-24T12:40:25;8.27;;;4.78;;
7605;SDS011;3844;53.360;9.738;2023-04-24T12:42:26;7.97;;;4.65;;
7605;SDS011;3844;53.360;9.738;2023-04-24T12:44:34;7.40;;;4.80;;
7605;SDS011;3844;53.360;9.738;2023-04-24T12:46:37;8.07;;;5.03;;
7605;SDS011;3844;53.360;9.738;2023-04-24T12:48:37;7.90;;;4.40;;